Time;durP1;ratioP1;P1;durP2;ratioP2;P2;SDS_P1;SDS_P2;PMS_P1;PMS_P2;Temp;Humidity;BMP_temperature;BMP_pressure;BME280_temperature;BME280_humidity;BME280_pressure;Samples;Min_cycle;Max_cycle;Signal;HPM_P1;HPM_P2
2023/03/24 00:01:16;;;;;;;0.00;0.00;;;11.90;99.90;;;;;;4998971;28;20061;-69
2023/03/24 00:03:44;;;;;;;0.68;0.47;;;11.90;99.90;;;;;;4998243;28;20050;-69
2023/03/24 00:06:12;;;;;;;0.38;0.38;;;11.90;99.90;;;;;;5009075;28;20100;-69
2023/03/24 00:08:40;;;;;;;0.10;0.10;;;11.80;99.90;;;;;;4991859;28;20077;-70
2023/03/24 00:11:12;;;;;;;15.65;1.30;;;11.80;99.90;;;;;;5004804;28;20077;-69
2023/03/24 00:13:39;;;;;;;0.20;0.20;;;11.90;99.90;;;;;;5009171;28;20053;-69
2023/03/24 00:16:11;;;;;;;0.60;0.60;;;11.80;99.90;;;;;;4999029;28;20517;-69
2023/03/24 00:18:38;;;;;;;0.00;0.00;;;11.90;99.90;;;;;;5004368;28;20060;-69
2023/03/24 00:21:05;;;;;;;0.68;0.55;;;11.90;99.90;;;;;;5008948;28;20117;-70
2023/03/24 00:23:32;;;;;;;0.10;0.10;;;11.80;99.90;;;;;;4997641;28;20046;-69
2023/03/24 00:26:13;;;;;;;2.47;1.77;;;11.80;99.90;;;;;;5010108;28;20057;-69
2023/03/24 00:28:41;;;;;;;0.10;0.10;;;11.80;99.90;;;;;;5011335;28;20054;-69
2023/03/24 00:31:08;;;;;;;0.45;0.45;;;11.80;99.90;;;;;;4998866;28;20053;-69
2023/03/24 00:33:34;;;;;;;0.10;0.10;;;11.80;99.90;;;;;;4994990;28;20053;-70
2023/03/24 00:36:01;;;;;;;0.60;0.45;;;11.80;99.90;;;;;;5005364;28;20095;-69
2023/03/24 00:38:27;;;;;;;0.10;0.10;;;11.80;99.90;;;;;;5000414;28;20042;-69
2023/03/24 00:40:53;;;;;;;0.30;0.30;;;11.80;99.90;;;;;;5011836;28;20230;-69
2023/03/24 00:43:19;;;;;;;0.22;0.22;;;11.80;99.90;;;;;;5011741;28;20078;-69
2023/03/24 00:45:45;;;;;;;0.20;0.20;;;11.80;99.90;;;;;;5009841;28;20127;-69
2023/03/24 00:48:13;;;;;;;1.02;0.93;;;11.70;99.90;;;;;;5001279;28;20053;-69
2023/03/24 00:50:38;;;;;;;0.43;0.43;;;11.70;99.90;;;;;;5011872;28;20049;-69
2023/03/24 00:53:04;;;;;;;0.95;0.93;;;11.70;99.90;;;;;;5011301;28;20054;-69
2023/03/24 00:55:30;;;;;;;0.10;0.10;;;11.80;99.90;;;;;;5006314;28;20046;-69
2023/03/24 00:57:56;;;;;;;0.22;0.22;;;11.80;99.90;;;;;;5000152;28;20383;-70
2023/03/24 01:00:24;;;;;;;0.10;0.10;;;11.80;99.90;;;;;;5011501;28;20045;-70
2023/03/24 01:02:52;;;;;;;0.28;0.28;;;11.80;99.90;;;;;;5003841;28;20058;-70
2023/03/24 01:05:20;;;;;;;0.30;0.30;;;11.80;99.90;;;;;;5007041;28;20164;-70
2023/03/24 01:07:50;;;;;;;0.35;0.35;;;11.80;99.90;;;;;;4996067;28;20166;-70
2023/03/24 01:10:18;;;;;;;0.10;0.10;;;11.80;99.90;;;;;;4999504;28;20125;-70
2023/03/24 01:12:44;;;;;;;0.50;0.50;;;11.70;99.90;;;;;;5005357;28;20054;-70
2023/03/24 01:15:16;;;;;;;1.48;1.38;;;11.80;99.90;;;;;;5009394;28;20041;-70
2023/03/24 01:17:42;;;;;;;0.10;0.10;;;11.80;99.90;;;;;;5010176;28;20057;-70
2023/03/24 01:20:10;;;;;;;0.10;0.10;;;11.80;99.90;;;;;;5000711;28;20389;-70
2023/03/24 01:22:43;;;;;;;0.10;0.10;;;11.80;99.90;;;;;;5006526;28;20046;-71
2023/03/24 01:25:14;;;;;;;0.35;0.35;;;11.80;99.90;;;;;;5006734;28;20038;-71
2023/03/24 01:27:39;;;;;;;0.45;0.45;;;11.80;99.90;;;;;;4997458;28;20042;-70
2023/03/24 01:30:06;;;;;;;0.43;0.43;;;11.80;99.90;;;;;;5007388;28;20512;-70
2023/03/24 01:32:32;;;;;;;0.00;0.00;;;11.80;99.90;;;;;;5011537;28;20437;-70
2023/03/24 01:34:58;;;;;;;0.32;0.32;;;11.80;99.90;;;;;;5003115;28;20105;-70
2023/03/24 01:37:23;;;;;;;0.10;0.10;;;11.80;99.90;;;;;;5004470;28;20092;-71
2023/03/24 01:39:50;;;;;;;0.10;0.10;;;11.80;99.90;;;;;;5007979;28;20045;-70
2023/03/24 01:42:22;;;;;;;0.32;0.32;;;11.80;99.90;;;;;;4993265;28;20038;-70
2023/03/24 01:44:51;;;;;;;0.10;0.10;;;11.90;99.90;;;;;;4995774;28;20160;-71
2023/03/24 01:47:16;;;;;;;0.73;0.73;;;11.80;99.90;;;;;;5000525;28;20038;-71
2023/03/24 01:49:47;;;;;;;0.10;0.10;;;11.80;99.90;;;;;;4996665;28;20501;-71
2023/03/24 01:52:28;;;;;;;0.63;0.63;;;11.80;99.90;;;;;;5009595;28;20096;-71
2023/03/24 01:55:01;;;;;;;0.30;0.30;;;11.80;99.90;;;;;;5000595;28;20058;-71
2023/03/24 01:57:32;;;;;;;0.10;0.10;;;11.80;99.90;;;;;;5002619;28;20042;-71
2023/03/24 02:00:03;;;;;;;3.40;1.10;;;11.80;99.90;;;;;;4998004;28;20042;-71
2023/03/24 02:02:33;;;;;;;0.20;0.20;;;11.80;99.90;;;;;;4996677;28;20090;-70
2023/03/24 02:05:03;;;;;;;0.43;0.43;;;11.80;99.90;;;;;;5000981;28;20037;-70
2023/03/24 02:07:51;;;;;;;0.20;0.20;;;11.80;99.90;;;;;;5010776;28;20050;-71
2023/03/24 02:10:19;;;;;;;0.15;0.15;;;11.80;99.90;;;;;;4999099;28;20042;-70
2023/03/24 02:12:45;;;;;;;1.65;1.35;;;11.80;99.90;;;;;;4997982;28;20157;-70
2023/03/24 02:15:13;;;;;;;0.60;0.60;;;11.80;99.90;;;;;;5010221;28;20401;-70
2023/03/24 02:18:12;;;;;;;1.27;0.95;;;11.80;99.90;;;;;;5009147;28;20056;-71
2023/03/24 02:21:06;;;;;;;0.10;0.10;;;11.80;99.90;;;;;;4992635;28;20066;-72
2023/03/24 02:23:52;;;;;;;0.10;0.10;;;11.80;99.90;;;;;;4998471;28;20045;-71
2023/03/24 02:26:25;;;;;;;0.30;0.30;;;11.70;99.90;;;;;;5000941;28;20157;-71
2023/03/24 02:29:28;;;;;;;0.10;0.10;;;11.80;99.90;;;;;;5003793;28;20394;-71
2023/03/24 02:32:17;;;;;;;0.00;0.00;;;11.80;99.90;;;;;;5004614;28;20053;-72
2023/03/24 02:35:09;;;;;;;0.10;0.10;;;11.80;99.90;;;;;;4998785;28;20050;-71
2023/03/24 02:38:07;;;;;;;0.10;0.10;;;11.80;99.90;;;;;;5001887;28;20501;-72
2023/03/24 02:40:36;;;;;;;0.10;0.10;;;11.80;99.90;;;;;;5004248;28;20049;-72
2023/03/24 02:43:15;;;;;;;0.10;0.10;;;11.70;99.90;;;;;;5008665;28;20049;-71
2023/03/24 02:46:12;;;;;;;2.15;2.05;;;11.70;99.90;;;;;;5009777;28;20129;-71
2023/03/24 02:48:58;;;;;;;2.20;1.15;;;11.70;99.90;;;;;;4993381;28;20806;-71
2023/03/24 02:51:39;;;;;;;1.02;0.57;;;11.60;99.90;;;;;;5001433;28;20046;-70
2023/03/24 02:54:16;;;;;;;0.00;0.00;;;11.50;99.90;;;;;;4996544;28;20049;-70
2023/03/24 02:57:02;;;;;;;0.45;0.45;;;11.50;99.90;;;;;;4996981;28;20404;-71
2023/03/24 03:00:20;;;;;;;0.10;0.10;;;11.50;99.90;;;;;;5003498;28;20409;-71
2023/03/24 03:03:01;;;;;;;0.40;0.40;;;11.40;99.90;;;;;;4954620;28;20522;-71
2023/03/24 03:05:45;;;;;;;0.00;0.00;;;11.30;99.90;;;;;;4993551;28;20049;-71
2023/03/24 03:08:16;;;;;;;0.00;0.00;;;11.30;99.90;;;;;;4996478;28;20375;-70
2023/03/24 03:10:44;;;;;;;0.05;0.05;;;11.20;99.90;;;;;;5009429;28;20132;-71
2023/03/24 03:13:22;;;;;;;0.10;0.10;;;11.20;99.90;;;;;;5009157;28;20103;-71
2023/03/24 03:15:53;;;;;;;0.10;0.10;;;11.20;99.90;;;;;;4990814;28;20046;-71
2023/03/24 03:18:34;;;;;;;0.65;0.30;;;11.10;99.90;;;;;;5002893;28;20053;-70
2023/03/24 03:21:06;;;;;;;0.75;0.75;;;11.00;99.90;;;;;;5002549;28;20058;-71
2023/03/24 03:23:36;;;;;;;0.10;0.10;;;11.00;99.90;;;;;;5002556;28;20045;-71
2023/03/24 03:26:06;;;;;;;0.20;0.20;;;11.00;99.90;;;;;;4990924;28;20080;-70
2023/03/24 03:28:40;;;;;;;0.00;0.00;;;11.00;99.90;;;;;;4990414;28;20065;-70
2023/03/24 03:31:10;;;;;;;0.10;0.10;;;11.00;99.90;;;;;;4998485;28;20069;-70
2023/03/24 03:33:45;;;;;;;0.90;0.75;;;10.90;99.90;;;;;;4990902;28;20189;-70
2023/03/24 03:36:23;;;;;;;1.35;1.27;;;10.90;99.90;;;;;;4994820;28;20034;-70
2023/03/24 03:39:09;;;;;;;0.10;0.10;;;10.80;99.90;;;;;;4993044;28;20509;-70
2023/03/24 03:41:36;;;;;;;0.25;0.25;;;10.80;99.90;;;;;;4998644;28;20046;-70
2023/03/24 03:44:01;;;;;;;0.10;0.10;;;10.70;99.90;;;;;;4989386;28;20081;-70
2023/03/24 03:46:27;;;;;;;0.10;0.10;;;10.70;99.90;;;;;;5000568;28;20545;-70
2023/03/24 03:48:53;;;;;;;0.80;0.80;;;10.70;99.90;;;;;;5006479;28;20040;-70
2023/03/24 03:51:18;;;;;;;0.10;0.10;;;10.60;99.90;;;;;;5003687;28;20050;-70
2023/03/24 03:53:49;;;;;;;0.30;0.30;;;10.60;99.90;;;;;;5010779;28;20096;-69
2023/03/24 03:56:18;;;;;;;0.35;0.35;;;10.50;99.90;;;;;;5013051;28;20053;-69
2023/03/24 03:58:46;;;;;;;0.47;0.47;;;10.50;99.90;;;;;;5006395;28;20042;-69
2023/03/24 04:01:14;;;;;;;0.70;0.70;;;10.50;99.90;;;;;;4997835;28;20058;-69
2023/03/24 04:03:58;;;;;;;0.10;0.10;;;10.40;99.90;;;;;;5012706;28;20046;-69
2023/03/24 04:06:52;;;;;;;0.13;0.13;;;10.30;99.90;;;;;;5012702;28;20085;-69
2023/03/24 04:09:51;;;;;;;0.10;0.10;;;10.20;99.90;;;;;;4994532;28;20054;-69
2023/03/24 04:12:45;;;;;;;0.70;0.70;;;10.20;99.90;;;;;;4993871;28;20493;-69
2023/03/24 04:15:32;;;;;;;0.10;0.10;;;10.20;99.90;;;;;;4996206;28;20432;-69
2023/03/24 04:18:24;;;;;;;1.00;0.98;;;10.10;99.90;;;;;;5006706;28;20046;-69
2023/03/24 04:21:32;;;;;;;0.00;0.00;;;10.10;99.90;;;;;;4996429;28;20050;-69
2023/03/24 04:24:12;;;;;;;0.10;0.10;;;10.00;99.90;;;;;;5007172;28;20500;-68
2023/03/24 04:26:49;;;;;;;0.30;0.30;;;10.00;99.90;;;;;;5007395;28;20042;-69
2023/03/24 04:29:45;;;;;;;0.17;0.17;;;10.00;99.90;;;;;;5000899;28;20393;-69
2023/03/24 04:32:32;;;;;;;0.10;0.10;;;9.90;99.90;;;;;;4998549;28;20058;-69
2023/03/24 04:35:03;;;;;;;0.10;0.10;;;9.90;99.90;;;;;;5010318;28;20497;-69
2023/03/24 04:37:32;;;;;;;0.80;0.80;;;9.90;99.90;;;;;;4998926;28;20117;-68
2023/03/24 04:40:01;;;;;;;0.00;0.00;;;9.90;99.90;;;;;;5011413;28;20048;-69
2023/03/24 04:42:32;;;;;;;0.98;0.95;;;9.90;99.90;;;;;;5011558;28;20394;-68
2023/03/24 04:44:59;;;;;;;4.00;1.90;;;9.80;99.90;;;;;;5003909;28;20121;-69
2023/03/24 04:47:30;;;;;;;8.25;4.20;;;9.80;99.90;;;;;;4997467;28;20073;-68
2023/03/24 04:50:01;;;;;;;0.22;0.22;;;9.80;99.90;;;;;;4997432;28;20565;-68
2023/03/24 04:52:26;;;;;;;0.55;0.55;;;9.80;99.90;;;;;;4994442;28;20077;-68
2023/03/24 04:54:52;;;;;;;0.10;0.10;;;9.80;99.90;;;;;;4997028;28;20501;-68
2023/03/24 04:57:18;;;;;;;0.52;0.52;;;9.80;99.90;;;;;;5000265;28;20482;-68
2023/03/24 04:59:43;;;;;;;0.20;0.20;;;9.80;99.90;;;;;;5011923;28;20129;-68
2023/03/24 05:02:09;;;;;;;0.10;0.10;;;9.80;99.90;;;;;;5009104;28;20049;-68
2023/03/24 05:04:35;;;;;;;0.10;0.10;;;9.80;99.90;;;;;;4999604;28;20544;-68
2023/03/24 05:07:02;;;;;;;3.42;1.27;;;9.80;99.90;;;;;;5011355;28;20054;-68
2023/03/24 05:09:30;;;;;;;0.20;0.20;;;9.80;99.90;;;;;;4997134;28;20054;-68
2023/03/24 05:11:56;;;;;;;0.08;0.08;;;9.70;99.90;;;;;;4995879;28;20081;-68
2023/03/24 05:14:22;;;;;;;0.22;0.22;;;9.80;99.90;;;;;;5002010;28;20072;-68
2023/03/24 05:16:48;;;;;;;7.50;1.17;;;9.80;99.90;;;;;;4994825;28;20421;-68
2023/03/24 05:19:14;;;;;;;0.10;0.10;;;9.70;99.90;;;;;;5007284;28;20041;-68
2023/03/24 05:21:40;;;;;;;0.10;0.10;;;9.70;99.90;;;;;;5010854;28;20137;-68
2023/03/24 05:24:06;;;;;;;0.00;0.00;;;9.70;99.90;;;;;;5009023;28;20155;-68
2023/03/24 05:26:31;;;;;;;0.10;0.10;;;9.70;99.90;;;;;;5001265;28;20089;-68
2023/03/24 05:28:57;;;;;;;0.57;0.50;;;9.70;99.90;;;;;;5010213;28;20049;-68
2023/03/24 05:31:23;;;;;;;4.60;1.83;;;9.70;99.90;;;;;;5006712;28;20045;-68
2023/03/24 05:33:48;;;;;;;0.40;0.28;;;9.60;99.90;;;;;;5001709;28;20046;-68
2023/03/24 05:36:14;;;;;;;0.20;0.20;;;9.60;99.90;;;;;;5011178;28;20044;-68
2023/03/24 05:38:40;;;;;;;0.20;0.20;;;9.60;99.90;;;;;;5007666;28;20210;-68
2023/03/24 05:41:06;;;;;;;0.10;0.10;;;9.60;99.90;;;;;;4993591;28;20478;-68
2023/03/24 05:43:32;;;;;;;7.38;1.33;;;9.50;99.90;;;;;;5002766;28;20046;-68
2023/03/24 05:46:00;;;;;;;0.90;0.90;;;9.60;99.90;;;;;;5010944;28;20143;-68
2023/03/24 05:48:26;;;;;;;0.10;0.10;;;9.50;99.90;;;;;;5000229;28;20046;-68
2023/03/24 05:50:52;;;;;;;0.98;0.50;;;9.60;99.90;;;;;;5010246;28;20521;-67
2023/03/24 05:53:18;;;;;;;0.00;0.00;;;9.60;99.90;;;;;;5011217;28;20077;-68
2023/03/24 05:55:47;;;;;;;37.30;1.35;;;9.60;99.90;;;;;;5008121;28;20165;-67
2023/03/24 05:58:14;;;;;;;0.10;0.10;;;9.60;99.90;;;;;;5003026;28;20050;-68
2023/03/24 06:00:40;;;;;;;0.10;0.10;;;9.60;99.90;;;;;;5009164;28;20042;-67
2023/03/24 06:03:05;;;;;;;0.90;0.82;;;9.60;99.90;;;;;;4998139;28;20049;-67
2023/03/24 06:05:31;;;;;;;5.47;2.83;;;9.60;99.90;;;;;;5005508;28;20034;-67
2023/03/24 06:08:00;;;;;;;0.03;0.03;;;9.60;99.90;;;;;;5011126;28;20456;-67
2023/03/24 06:10:27;;;;;;;0.65;0.65;;;9.70;99.90;;;;;;5000958;28;20449;-67
2023/03/24 06:12:54;;;;;;;0.20;0.20;;;9.70;99.90;;;;;;5000032;28;20405;-67
2023/03/24 06:15:21;;;;;;;0.47;0.47;;;9.60;99.90;;;;;;5010836;28;20033;-67
2023/03/24 06:17:49;;;;;;;0.10;0.10;;;9.60;99.90;;;;;;5011358;28;20038;-68
2023/03/24 06:20:17;;;;;;;0.28;0.28;;;9.60;99.90;;;;;;4999691;28;20132;-67
2023/03/24 06:22:44;;;;;;;0.10;0.10;;;9.60;99.90;;;;;;5006767;28;20576;-68
2023/03/24 06:25:12;;;;;;;0.40;0.30;;;9.60;99.90;;;;;;5001101;28;20092;-67
2023/03/24 06:27:44;;;;;;;0.10;0.10;;;9.60;99.90;;;;;;5010523;28;20053;-68
2023/03/24 06:30:11;;;;;;;1.02;0.63;;;9.70;99.90;;;;;;4997953;28;20061;-68
2023/03/24 06:32:37;;;;;;;1.35;0.63;;;9.70;99.90;;;;;;5002454;28;20049;-67
2023/03/24 06:35:03;;;;;;;0.77;0.77;;;9.70;99.90;;;;;;5009610;28;20140;-67
2023/03/24 06:37:29;;;;;;;0.85;0.85;;;9.70;99.90;;;;;;4997810;28;20057;-67
2023/03/24 06:39:55;;;;;;;0.63;0.63;;;9.70;99.90;;;;;;4996755;28;20494;-67
2023/03/24 06:42:20;;;;;;;0.10;0.10;;;9.80;99.90;;;;;;5003763;28;20046;-68
2023/03/24 06:44:46;;;;;;;0.45;0.45;;;9.80;99.90;;;;;;5000779;28;20121;-67
2023/03/24 06:47:11;;;;;;;0.15;0.15;;;9.80;99.90;;;;;;5002650;28;20124;-67
2023/03/24 06:49:37;;;;;;;1.48;1.38;;;9.80;99.90;;;;;;5007406;28;20049;-67
2023/03/24 06:52:03;;;;;;;0.10;0.10;;;9.80;99.90;;;;;;5000102;28;20528;-67
2023/03/24 06:54:29;;;;;;;0.75;0.75;;;9.80;99.90;;;;;;5008348;28;20045;-67
2023/03/24 06:56:55;;;;;;;0.10;0.10;;;9.90;99.90;;;;;;4995275;28;20038;-67
2023/03/24 06:59:23;;;;;;;0.10;0.10;;;9.90;99.90;;;;;;5000824;28;20535;-67
2023/03/24 07:01:52;;;;;;;0.10;0.10;;;10.00;99.90;;;;;;4998527;28;20405;-67
2023/03/24 07:04:18;;;;;;;0.28;0.28;;;10.00;99.90;;;;;;5001033;28;20508;-67
2023/03/24 07:06:44;;;;;;;0.10;0.10;;;10.00;99.90;;;;;;5008538;28;20108;-67
2023/03/24 07:09:11;;;;;;;0.47;0.47;;;10.00;99.90;;;;;;4997847;28;20057;-67
2023/03/24 07:11:36;;;;;;;0.52;0.52;;;10.10;99.90;;;;;;4998491;28;20084;-67
2023/03/24 07:14:02;;;;;;;0.10;0.10;;;10.10;99.90;;;;;;5005858;28;20081;-67
2023/03/24 07:16:28;;;;;;;1.00;0.95;;;10.10;99.90;;;;;;5009002;28;20073;-67
2023/03/24 07:18:53;;;;;;;0.10;0.10;;;10.10;99.90;;;;;;5003323;28;20440;-67
2023/03/24 07:21:19;;;;;;;1.08;1.00;;;10.10;99.90;;;;;;5003134;28;20046;-67
2023/03/24 07:23:45;;;;;;;1.45;0.55;;;10.10;99.90;;;;;;5012575;28;20632;-67
2023/03/24 07:26:10;;;;;;;0.10;0.10;;;10.10;99.90;;;;;;5012710;28;20045;-67
2023/03/24 07:28:36;;;;;;;0.10;0.10;;;10.10;99.90;;;;;;5006738;28;20074;-67
2023/03/24 07:31:03;;;;;;;0.13;0.13;;;10.20;99.90;;;;;;4999113;28;20384;-67
2023/03/24 07:33:30;;;;;;;0.00;0.00;;;10.20;99.90;;;;;;5007015;28;20149;-67
2023/03/24 07:35:56;;;;;;;1.40;1.15;;;10.20;99.90;;;;;;5011925;28;20042;-67
2023/03/24 07:38:23;;;;;;;1.70;1.00;;;10.20;99.90;;;;;;5000122;28;20057;-67
2023/03/24 07:40:48;;;;;;;0.10;0.10;;;10.20;99.90;;;;;;5013038;28;20508;-67
2023/03/24 07:43:14;;;;;;;0.52;0.52;;;10.30;99.90;;;;;;5010645;28;20042;-67
2023/03/24 07:45:40;;;;;;;1.95;1.27;;;10.20;99.90;;;;;;4997381;28;20085;-67
2023/03/24 07:48:06;;;;;;;0.30;0.30;;;10.30;99.90;;;;;;5003614;28;20092;-67
2023/03/24 07:50:31;;;;;;;0.50;0.50;;;10.30;99.90;;;;;;5006428;28;20049;-67
2023/03/24 07:52:57;;;;;;;0.08;0.08;;;10.30;99.90;;;;;;5005125;28;20039;-67
2023/03/24 07:55:23;;;;;;;0.10;0.10;;;10.40;99.90;;;;;;5004594;28;20035;-67
2023/03/24 07:57:49;;;;;;;0.32;0.32;;;10.40;99.90;;;;;;5007360;28;20057;-67
2023/03/24 08:00:16;;;;;;;0.15;0.15;;;10.50;99.90;;;;;;5008209;28;20045;-67
2023/03/24 08:02:44;;;;;;;0.28;0.28;;;10.50;99.90;;;;;;5003973;28;20400;-66
2023/03/24 08:05:13;;;;;;;0.10;0.10;;;10.60;99.90;;;;;;5004740;28;20041;-67
2023/03/24 08:07:44;;;;;;;0.20;0.20;;;10.60;99.90;;;;;;5005534;28;20050;-67
2023/03/24 08:10:11;;;;;;;0.28;0.28;;;10.70;99.90;;;;;;5002852;28;20038;-67
2023/03/24 08:12:37;;;;;;;0.10;0.10;;;10.80;99.90;;;;;;5009739;28;20459;-67
2023/03/24 08:15:05;;;;;;;0.10;0.10;;;10.70;99.90;;;;;;5003224;28;20157;-67
2023/03/24 08:17:31;;;;;;;0.13;0.13;;;10.80;99.90;;;;;;5005661;28;20077;-67
2023/03/24 08:19:56;;;;;;;0.10;0.10;;;10.70;99.90;;;;;;5004371;28;20060;-67
2023/03/24 08:22:22;;;;;;;0.93;0.93;;;10.70;99.90;;;;;;5004373;28;20038;-67
2023/03/24 08:24:47;;;;;;;0.10;0.10;;;10.70;99.90;;;;;;5002247;28;20051;-67
2023/03/24 08:27:13;;;;;;;2.90;1.27;;;10.70;99.90;;;;;;5004751;28;20042;-67
2023/03/24 08:29:39;;;;;;;0.22;0.22;;;11.00;99.90;;;;;;5004013;28;20046;-67
2023/03/24 08:32:04;;;;;;;0.10;0.10;;;11.00;99.90;;;;;;5007957;28;20072;-67
2023/03/24 08:34:30;;;;;;;1.00;0.73;;;11.00;99.90;;;;;;5001076;28;20096;-67
2023/03/24 08:36:55;;;;;;;1.08;1.08;;;10.90;99.90;;;;;;5011915;28;20038;-67
2023/03/24 08:39:23;;;;;;;1.20;1.10;;;11.00;99.90;;;;;;5010752;28;20052;-67
2023/03/24 08:41:49;;;;;;;8.48;2.05;;;11.00;99.90;;;;;;5002543;28;20058;-67
2023/03/24 08:44:15;;;;;;;1.42;1.35;;;11.10;99.90;;;;;;5010188;28;20050;-67
2023/03/24 08:46:41;;;;;;;0.85;0.47;;;11.10;99.90;;;;;;5011330;28;20132;-67
2023/03/24 08:49:07;;;;;;;0.30;0.30;;;11.10;99.90;;;;;;5011598;28;20125;-67
2023/03/24 08:51:33;;;;;;;1.85;1.10;;;11.20;99.90;;;;;;5000991;28;20400;-67
2023/03/24 08:54:00;;;;;;;0.25;0.25;;;11.40;99.90;;;;;;5003735;28;20042;-67
2023/03/24 08:56:26;;;;;;;0.15;0.15;;;11.70;99.90;;;;;;4994158;28;20042;-67
2023/03/24 08:58:52;;;;;;;0.75;0.75;;;12.50;99.90;;;;;;5011565;28;20141;-67
2023/03/24 09:01:22;;;;;;;0.00;0.00;;;12.80;99.90;;;;;;5011287;28;20042;-67
2023/03/24 09:03:47;;;;;;;0.17;0.17;;;12.90;99.90;;;;;;5003607;28;20046;-67
2023/03/24 09:06:14;;;;;;;1.02;1.00;;;12.70;99.90;;;;;;5004830;28;20045;-67
2023/03/24 09:08:40;;;;;;;0.55;0.55;;;13.30;99.90;;;;;;5011475;28;20362;-67
2023/03/24 09:11:12;;;;;;;0.15;0.15;;;13.30;99.90;;;;;;5012062;28;20045;-67
2023/03/24 09:13:37;;;;;;;4.38;0.63;;;14.10;99.90;;;;;;4997676;28;20157;-67
2023/03/24 09:16:03;;;;;;;0.03;0.03;;;14.50;99.90;;;;;;5001769;28;20120;-67
2023/03/24 09:18:28;;;;;;;0.73;0.73;;;14.50;99.90;;;;;;5000112;28;20061;-67
2023/03/24 09:20:54;;;;;;;0.10;0.10;;;14.40;99.90;;;;;;4995328;28;20058;-67
2023/03/24 09:23:21;;;;;;;0.20;0.20;;;14.30;99.90;;;;;;5010030;28;20405;-67
2023/03/24 09:25:51;;;;;;;0.10;0.10;;;14.60;99.90;;;;;;4996865;28;20046;-67
2023/03/24 09:28:17;;;;;;;0.10;0.10;;;14.60;99.90;;;;;;5009893;28;20485;-67
2023/03/24 09:30:43;;;;;;;0.75;0.73;;;14.80;99.90;;;;;;5010756;28;20091;-67
2023/03/24 09:33:08;;;;;;;4.10;3.13;;;14.80;99.90;;;;;;5003163;28;20089;-67
2023/03/24 09:35:34;;;;;;;0.10;0.10;;;15.20;99.90;;;;;;4995628;28;20056;-67
2023/03/24 09:38:00;;;;;;;0.32;0.32;;;15.30;99.90;;;;;;4997520;28;20042;-67
2023/03/24 09:40:32;;;;;;;0.05;0.05;;;15.20;99.90;;;;;;5007405;28;20050;-67
2023/03/24 09:43:05;;;;;;;0.88;0.88;;;15.20;99.90;;;;;;4997017;28;20054;-67
2023/03/24 09:45:36;;;;;;;0.10;0.10;;;14.70;99.90;;;;;;4992977;28;20073;-68
2023/03/24 09:48:06;;;;;;;0.52;0.52;;;15.00;99.90;;;;;;5005768;28;20046;-67
2023/03/24 09:50:34;;;;;;;1.40;0.65;;;14.90;99.90;;;;;;5007513;28;20030;-67
2023/03/24 09:53:08;;;;;;;0.10;0.10;;;15.10;99.90;;;;;;4994564;28;20045;-67
2023/03/24 09:55:36;;;;;;;0.13;0.13;;;15.40;99.90;;;;;;5010952;28;20175;-67
2023/03/24 09:58:07;;;;;;;0.10;0.10;;;15.10;99.90;;;;;;5004451;28;20043;-67
2023/03/24 10:00:33;;;;;;;0.43;0.43;;;14.70;99.90;;;;;;5007558;28;20073;-67
2023/03/24 10:03:10;;;;;;;0.50;0.50;;;14.90;99.90;;;;;;5011039;28;20049;-67
2023/03/24 10:05:50;;;;;;;0.20;0.20;;;15.10;99.90;;;;;;5011399;28;20046;-67
2023/03/24 10:08:32;;;;;;;0.05;0.05;;;15.10;99.90;;;;;;4994104;28;20528;-67
2023/03/24 10:11:18;;;;;;;0.40;0.40;;;15.20;99.90;;;;;;5003299;28;20513;-67
2023/03/24 10:14:10;;;;;;;0.32;0.32;;;15.10;99.90;;;;;;4996333;28;20054;-66
2023/03/24 10:16:45;;;;;;;0.20;0.20;;;15.00;99.90;;;;;;5002438;28;20053;-65
2023/03/24 10:19:39;;;;;;;0.13;0.13;;;14.70;99.90;;;;;;5020030;28;20055;-65
2023/03/24 10:22:21;;;;;;;10.85;1.45;;;14.70;99.90;;;;;;4978642;28;20061;-65
2023/03/24 10:25:08;;;;;;;0.80;0.80;;;14.80;99.90;;;;;;5003122;28;20046;-65
2023/03/24 10:27:47;;;;;;;2.75;2.35;;;14.70;99.90;;;;;;5002311;28;20050;-66
2023/03/24 10:30:33;;;;;;;0.10;0.10;;;14.70;99.90;;;;;;5008881;28;20049;-66
2023/03/24 10:32:59;;;;;;;2.28;1.20;;;14.70;99.90;;;;;;4998764;28;20057;-66
2023/03/24 10:35:35;;;;;;;0.28;0.20;;;14.80;99.90;;;;;;5006894;28;20847;-65
2023/03/24 10:38:08;;;;;;;3.25;1.13;;;14.90;99.90;;;;;;5002423;28;20046;-65
2023/03/24 10:40:33;;;;;;;0.75;0.75;;;14.80;99.90;;;;;;5007892;28;20497;-65
2023/03/24 10:43:02;;;;;;;0.77;0.77;;;14.80;99.90;;;;;;5000485;28;20045;-65
2023/03/24 10:45:52;;;;;;;5.15;1.42;;;14.70;99.90;;;;;;5003874;28;20394;-66
2023/03/24 10:48:41;;;;;;;0.10;0.10;;;14.60;99.90;;;;;;5008984;28;20034;-67
2023/03/24 10:51:14;;;;;;;0.50;0.50;;;14.40;99.90;;;;;;4993500;28;20038;-67
2023/03/24 10:53:40;;;;;;;0.95;0.77;;;14.60;99.90;;;;;;4996146;28;20046;-66
2023/03/24 10:56:06;;;;;;;0.30;0.30;;;14.60;99.90;;;;;;5004272;28;20108;-67
2023/03/24 10:58:40;;;;;;;0.77;0.77;;;14.70;99.90;;;;;;5009024;28;20038;-66
2023/03/24 11:01:21;;;;;;;0.00;0.00;;;14.60;99.90;;;;;;4995593;28;20042;-66
2023/03/24 11:03:48;;;;;;;2.25;1.20;;;14.80;99.90;;;;;;4991448;28;20132;-67
2023/03/24 11:06:18;;;;;;;0.00;0.00;;;14.70;99.90;;;;;;4998239;28;20501;-67
2023/03/24 11:08:44;;;;;;;0.10;0.10;;;14.60;99.90;;;;;;4998987;28;20118;-68
2023/03/24 11:11:27;;;;;;;0.57;0.57;;;14.60;99.90;;;;;;5014412;28;20556;-66
2023/03/24 11:13:55;;;;;;;1.90;0.40;;;14.70;99.90;;;;;;4998583;28;20065;-66
2023/03/24 11:16:27;;;;;;;0.10;0.10;;;14.80;99.90;;;;;;4996266;28;20466;-68
2023/03/24 11:18:59;;;;;;;0.82;0.80;;;14.80;99.90;;;;;;5001170;28;20054;-67
2023/03/24 11:21:30;;;;;;;0.08;0.08;;;14.50;99.90;;;;;;4996780;28;20529;-67
2023/03/24 11:24:00;;;;;;;0.10;0.10;;;14.50;99.90;;;;;;5004427;28;20132;-68
2023/03/24 11:26:33;;;;;;;4.25;2.17;;;14.40;99.90;;;;;;5005725;28;20252;-68
2023/03/24 11:29:09;;;;;;;0.30;0.30;;;14.50;99.90;;;;;;4998710;28;20052;-68
2023/03/24 11:31:38;;;;;;;0.55;0.55;;;14.80;99.90;;;;;;5006742;28;20050;-68
2023/03/24 11:34:40;;;;;;;0.13;0.13;;;15.00;99.90;;;;;;4995834;28;20116;-68
2023/03/24 11:37:15;;;;;;;0.10;0.10;;;15.10;99.90;;;;;;4969620;28;20051;-68
2023/03/24 11:39:41;;;;;;;1.60;1.30;;;15.10;99.90;;;;;;5000553;28;20041;-68
2023/03/24 11:42:09;;;;;;;0.35;0.35;;;15.30;99.90;;;;;;5003891;28;20045;-68
2023/03/24 11:44:38;;;;;;;0.57;0.57;;;15.10;99.90;;;;;;5002494;28;20058;-68
2023/03/24 11:47:12;;;;;;;0.10;0.10;;;14.60;99.90;;;;;;5003818;28;20050;-68
2023/03/24 11:49:59;;;;;;;1.15;1.05;;;14.80;99.90;;;;;;4995212;28;20046;-68
2023/03/24 11:52:40;;;;;;;0.20;0.20;;;15.20;99.90;;;;;;4996781;28;20034;-68
2023/03/24 11:55:33;;;;;;;0.10;0.10;;;15.60;99.90;;;;;;5007122;28;20052;-68
2023/03/24 11:58:20;;;;;;;1.55;0.80;;;15.90;99.90;;;;;;4961689;28;20105;-68
2023/03/24 12:01:00;;;;;;;1.85;1.08;;;15.90;99.90;;;;;;4998813;28;20501;-68
2023/03/24 12:04:06;;;;;;;1.20;1.15;;;15.70;99.90;;;;;;5006544;28;20057;-68
2023/03/24 12:07:06;;;;;;;0.10;0.10;;;15.40;99.90;;;;;;4997624;28;20145;-68
2023/03/24 12:09:47;;;;;;;3.13;1.55;;;15.10;99.90;;;;;;5008878;28;20081;-68
2023/03/24 12:12:32;;;;;;;1.10;1.02;;;15.30;99.90;;;;;;5003364;28;20463;-68
2023/03/24 12:15:12;;;;;;;0.00;0.00;;;14.80;99.90;;;;;;4997274;28;20046;-65
2023/03/24 12:17:45;;;;;;;0.08;0.08;;;14.90;99.90;;;;;;5006832;28;20107;-65
2023/03/24 12:21:00;;;;;;;0.23;0.23;;;15.30;99.90;;;;;;5007867;28;20105;-65
2023/03/24 12:23:52;;;;;;;0.00;0.00;;;15.60;99.90;;;;;;4967939;28;20149;-66
2023/03/24 12:26:28;;;;;;;6.13;1.55;;;15.80;99.90;;;;;;5012524;28;20221;-66
2023/03/24 12:29:04;;;;;;;31.98;0.98;;;15.60;99.90;;;;;;5010456;28;20037;-65
2023/03/24 12:31:45;;;;;;;0.85;0.85;;;15.70;99.90;;;;;;4997525;28;20074;-65
2023/03/24 12:34:41;;;;;;;0.60;0.60;;;15.10;99.90;;;;;;5009291;28;20449;-66
2023/03/24 12:37:45;;;;;;;2.20;1.05;;;14.80;99.90;;;;;;5010801;28;20176;-65
2023/03/24 12:40:11;;;;;;;0.00;0.00;;;15.00;99.90;;;;;;5005834;28;20038;-66
2023/03/24 12:42:43;;;;;;;0.10;0.10;;;15.00;99.90;;;;;;4997452;28;20109;-66
2023/03/24 12:45:27;;;;;;;0.00;0.00;;;15.00;99.90;;;;;;4995141;28;20062;-65
2023/03/24 12:48:01;;;;;;;0.20;0.20;;;14.90;99.90;;;;;;5005411;28;20061;-65
2023/03/24 12:50:41;;;;;;;0.00;0.00;;;15.20;99.90;;;;;;4997581;28;20046;-66
2023/03/24 12:53:35;;;;;;;2.72;1.23;;;15.40;99.90;;;;;;4997167;28;20050;-66
2023/03/24 12:56:10;;;;;;;0.10;0.10;;;15.60;99.90;;;;;;4999182;28;20049;-66
2023/03/24 12:58:49;;;;;;;0.80;0.80;;;16.10;99.90;;;;;;5011555;28;20513;-66
2023/03/24 13:01:24;;;;;;;0.98;0.57;;;16.20;99.90;;;;;;5012486;28;20071;-65
2023/03/24 13:03:58;;;;;;;0.63;0.63;;;16.50;99.90;;;;;;4994252;28;20513;-66
2023/03/24 13:06:35;;;;;;;0.20;0.20;;;16.40;99.90;;;;;;5002782;28;20050;-66
2023/03/24 13:09:28;;;;;;;0.10;0.10;;;16.50;99.90;;;;;;5000816;28;20168;-67
2023/03/24 13:12:02;;;;;;;0.00;0.00;;;16.70;99.90;;;;;;5000541;28;20050;-66
2023/03/24 13:14:46;;;;;;;1.77;1.67;;;16.70;99.90;;;;;;5011671;28;20050;-66